createdAt,value
2023-02-09T00:00:25.199Z,60.71
2023-02-09T00:02:56.924Z,61.39
2023-02-09T00:05:28.609Z,60.98
2023-02-09T00:08:00.295Z,61.10
2023-02-09T00:10:31.949Z,60.88
2023-02-09T00:13:21.972Z,61.52
2023-02-09T00:16:01.596Z,61.22
2023-02-09T00:18:33.854Z,60.96
2023-02-09T00:21:09.088Z,61.80
2023-02-09T00:23:41.394Z,61.92
2023-02-09T00:26:13.071Z,61.88
2023-02-09T00:28:48.800Z,62.20
2023-02-09T00:31:21.388Z,62.51
2023-02-09T00:33:53.110Z,62.90
2023-02-09T00:36:24.769Z,62.48
2023-02-09T00:38:57.293Z,63.46
2023-02-09T00:41:47.844Z,62.80
2023-02-09T00:44:19.642Z,62.89
2023-02-09T00:46:52.297Z,62.92
2023-02-09T00:49:24.408Z,63.50
2023-02-09T00:51:56.114Z,63.30
2023-02-09T00:54:27.817Z,63.10
2023-02-09T00:57:05.134Z,63.67
2023-02-09T00:59:40.691Z,63.96
2023-02-09T01:02:13.671Z,63.65
2023-02-09T01:04:48.345Z,64.18
2023-02-09T01:07:20.989Z,63.41
2023-02-09T01:09:52.658Z,64.13
2023-02-09T01:12:24.334Z,64.34
2023-02-09T01:14:56.500Z,63.86
2023-02-09T01:17:28.895Z,63.56
2023-02-09T01:20:01.317Z,63.72
2023-02-09T01:22:34.525Z,64.05
2023-02-09T01:25:07.808Z,64.55
2023-02-09T01:27:42.244Z,63.80
2023-02-09T01:30:14.504Z,64.41
2023-02-09T01:32:46.223Z,64.73
2023-02-09T01:35:17.983Z,65.05
2023-02-09T01:37:49.624Z,64.40
2023-02-09T01:40:21.301Z,64.47
2023-02-09T01:42:55.780Z,64.63
2023-02-09T01:45:43.864Z,65.02
2023-02-09T01:48:22.210Z,65.00
2023-02-09T01:51:00.928Z,64.80
2023-02-09T01:53:33.000Z,64.89
2023-02-09T01:56:10.213Z,64.82
2023-02-09T01:58:41.965Z,65.38
2023-02-09T02:01:14.506Z,65.64
2023-02-09T02:03:46.672Z,65.53
2023-02-09T02:06:19.630Z,65.15
2023-02-09T02:09:04.281Z,65.52
2023-02-09T02:11:36.454Z,64.93
2023-02-09T02:14:30.191Z,65.92
2023-02-09T02:17:21.152Z,65.33
2023-02-09T02:19:58.752Z,65.16
2023-02-09T02:23:07.871Z,65.63
2023-02-09T02:25:56.695Z,64.70
2023-02-09T02:28:40.009Z,65.48
2023-02-09T02:31:42.491Z,66.10
2023-02-09T02:34:16.833Z,66.05
2023-02-09T02:37:19.934Z,65.46
2023-02-09T02:40:16.320Z,65.92
2023-02-09T02:42:55.390Z,65.88
2023-02-09T02:45:45.741Z,65.65
2023-02-09T02:48:27.376Z,65.36
2023-02-09T02:51:06.963Z,65.80
2023-02-09T02:53:42.381Z,65.73
2023-02-09T02:56:24.188Z,65.47
2023-02-09T02:58:59.396Z,65.49
2023-02-09T03:01:42.134Z,65.94
2023-02-09T03:04:16.150Z,65.76
2023-02-09T03:06:47.824Z,65.41
2023-02-09T03:09:19.530Z,65.57
2023-02-09T03:11:57.510Z,66.05
2023-02-09T03:14:43.432Z,65.92
2023-02-09T03:17:33.637Z,66.01
2023-02-09T03:20:23.661Z,65.79
2023-02-09T03:23:02.502Z,65.38
2023-02-09T03:25:56.171Z,65.52
2023-02-09T03:28:33.644Z,65.66
2023-02-09T03:31:06.662Z,65.37
2023-02-09T03:33:39.756Z,65.29
2023-02-09T03:36:18.412Z,65.62
2023-02-09T03:38:50.034Z,65.70
2023-02-09T03:41:21.708Z,66.26
2023-02-09T03:44:12.266Z,66.05
2023-02-09T03:46:44.235Z,65.74
2023-02-09T03:49:15.886Z,65.56
2023-02-09T03:51:47.753Z,65.80
2023-02-09T03:54:19.455Z,65.89
2023-02-09T03:56:51.134Z,65.94
2023-02-09T03:59:25.171Z,66.74
2023-02-09T04:01:58.831Z,66.55
2023-02-09T04:04:30.572Z,66.33
2023-02-09T04:07:02.343Z,66.10
2023-02-09T04:09:34.333Z,66.36
2023-02-09T04:12:06.251Z,66.69
2023-02-09T04:14:37.973Z,67.25
2023-02-09T04:17:09.834Z,67.38
2023-02-09T04:19:41.517Z,67.15
2023-02-09T04:22:13.226Z,66.98
2023-02-09T04:24:48.865Z,67.14
2023-02-09T04:27:20.584Z,66.66
2023-02-09T04:29:52.298Z,66.70
2023-02-09T04:32:23.997Z,66.89
2023-02-09T04:34:55.693Z,66.75
2023-02-09T04:37:27.401Z,67.39
2023-02-09T04:39:59.095Z,67.45
2023-02-09T04:42:32.370Z,67.54
2023-02-09T04:45:06.180Z,67.74
2023-02-09T04:47:37.875Z,67.40
2023-02-09T04:50:09.827Z,67.84
2023-02-09T04:52:41.492Z,67.25
2023-02-09T04:55:13.111Z,66.96
2023-02-09T04:58:03.169Z,67.14
2023-02-09T05:00:35.244Z,67.51
2023-02-09T05:03:07.167Z,67.38
2023-02-09T05:05:40.626Z,67.12
2023-02-09T05:08:12.338Z,67.25
2023-02-09T05:10:44.294Z,67.09
2023-02-09T05:13:16.128Z,66.97
2023-02-09T05:15:48.340Z,66.89
2023-02-09T05:18:20.085Z,66.95
2023-02-09T05:20:52.423Z,66.83
2023-02-09T05:23:24.127Z,66.91
2023-02-09T05:25:56.584Z,66.76
2023-02-09T05:28:28.319Z,67.18
2023-02-09T05:31:00.074Z,67.41
2023-02-09T05:33:31.875Z,67.47
2023-02-09T05:36:09.146Z,67.74
2023-02-09T05:38:40.916Z,67.98
2023-02-09T05:41:36.356Z,67.80
2023-02-09T05:44:08.087Z,67.57
2023-02-09T05:46:39.800Z,67.51
2023-02-09T05:49:11.518Z,67.59
2023-02-09T05:51:43.196Z,67.96
2023-02-09T05:54:14.892Z,68.17
2023-02-09T05:56:46.655Z,67.78
2023-02-09T05:59:18.451Z,68.03
2023-02-09T06:01:50.611Z,68.14
2023-02-09T06:04:22.769Z,67.62
2023-02-09T06:06:54.704Z,67.83
2023-02-09T06:09:26.646Z,67.55
2023-02-09T06:11:58.340Z,67.65
2023-02-09T06:14:30.004Z,67.53
2023-02-09T06:17:01.760Z,67.22
2023-02-09T06:19:33.568Z,67.44
2023-02-09T06:22:05.753Z,67.20
2023-02-09T06:24:37.441Z,67.45
2023-02-09T06:27:09.139Z,67.55
2023-02-09T06:29:40.998Z,67.44
2023-02-09T06:32:12.753Z,67.17
2023-02-09T06:34:46.439Z,67.07
2023-02-09T06:37:18.114Z,66.78
2023-02-09T06:39:49.800Z,66.82
2023-02-09T06:42:21.641Z,66.61
2023-02-09T06:44:53.405Z,66.55
2023-02-09T06:47:25.079Z,66.27
2023-02-09T06:49:56.749Z,65.66
2023-02-09T06:52:28.816Z,66.05
2023-02-09T06:55:00.566Z,64.09
2023-02-09T06:57:33.160Z,61.43
2023-02-09T07:00:07.821Z,60.43
2023-02-09T07:02:43.628Z,58.64
2023-02-09T07:05:16.671Z,57.61
2023-02-09T07:07:48.382Z,56.68
2023-02-09T07:10:20.183Z,54.57
2023-02-09T07:12:51.873Z,52.68
2023-02-09T07:15:23.573Z,49.58
2023-02-09T07:17:55.301Z,48.11
2023-02-09T07:20:26.961Z,46.33
2023-02-09T07:23:01.218Z,44.61
2023-02-09T07:25:34.225Z,41.36
2023-02-09T07:28:05.997Z,39.81
2023-02-09T07:30:41.081Z,37.24
2023-02-09T07:33:13.001Z,35.37
2023-02-09T07:35:45.304Z,33.37
2023-02-09T07:38:17.050Z,31.04
2023-02-09T07:40:48.991Z,29.34
2023-02-09T07:43:20.747Z,27.65
2023-02-09T07:45:52.513Z,26.36
2023-02-09T07:48:25.375Z,26.16
2023-02-09T07:50:57.375Z,25.46
2023-02-09T07:53:29.732Z,24.18
2023-02-09T07:56:01.702Z,23.08
2023-02-09T07:58:33.538Z,22.83
2023-02-09T08:01:08.274Z,21.54
2023-02-09T08:03:42.312Z,20.90
2023-02-09T08:06:30.319Z,19.99
2023-02-09T08:09:08.833Z,19.89
2023-02-09T08:11:46.029Z,19.08
2023-02-09T08:14:26.011Z,18.52
2023-02-09T08:17:21.595Z,18.53
2023-02-09T08:20:00.438Z,19.41
2023-02-09T08:22:35.086Z,18.98
2023-02-09T08:25:07.814Z,20.65
2023-02-09T08:27:40.812Z,20.12
2023-02-09T08:30:14.865Z,20.09
2023-02-09T08:32:46.672Z,19.73
2023-02-09T08:35:18.441Z,19.13
2023-02-09T08:37:50.240Z,19.20
2023-02-09T08:40:21.951Z,19.30
2023-02-09T08:42:53.991Z,18.86
2023-02-09T08:45:25.838Z,18.75
2023-02-09T08:47:59.603Z,18.51
2023-02-09T08:50:31.336Z,18.93
2023-02-09T08:53:06.731Z,18.55
2023-02-09T08:55:39.233Z,19.36
2023-02-09T08:58:11.838Z,19.94
2023-02-09T09:00:43.587Z,20.60
2023-02-09T09:03:15.452Z,21.28
2023-02-09T09:05:47.582Z,21.86
2023-02-09T09:08:19.563Z,21.88
2023-02-09T09:10:51.323Z,22.66
2023-02-09T09:13:24.436Z,22.76
2023-02-09T09:15:56.342Z,22.64
2023-02-09T09:18:28.059Z,23.47
2023-02-09T09:20:59.802Z,23.89
2023-02-09T09:23:31.568Z,24.23
2023-02-09T09:26:04.058Z,24.36
2023-02-09T09:28:36.361Z,24.25
2023-02-09T09:31:16.449Z,24.52
2023-02-09T09:33:48.269Z,24.84
2023-02-09T09:36:20.723Z,25.20
2023-02-09T09:38:52.420Z,24.99
2023-02-09T09:41:28.718Z,23.92
2023-02-09T09:44:04.781Z,23.60
2023-02-09T09:46:41.835Z,21.46
2023-02-09T09:49:23.937Z,21.51
2023-02-09T09:52:08.363Z,21.98
2023-02-09T09:54:41.117Z,22.45
2023-02-09T09:57:27.438Z,22.38
2023-02-09T10:00:02.054Z,22.82
2023-02-09T10:02:37.051Z,23.01
2023-02-09T10:05:17.852Z,22.86
2023-02-09T10:07:55.532Z,23.13
2023-02-09T10:10:38.881Z,22.70
2023-02-09T10:13:27.160Z,23.45
2023-02-09T10:15:59.187Z,23.52
2023-02-09T10:18:33.234Z,24.21
2023-02-09T10:21:11.997Z,24.29
2023-02-09T10:23:45.453Z,24.09
2023-02-09T10:26:25.699Z,24.82
2023-02-09T10:29:01.182Z,25.07
2023-02-09T10:31:42.634Z,24.41
2023-02-09T10:34:18.502Z,24.66
2023-02-09T10:36:54.766Z,24.49
2023-02-09T10:39:32.901Z,24.66
2023-02-09T10:42:27.122Z,24.79
2023-02-09T10:45:08.235Z,25.62
2023-02-09T10:47:40.024Z,26.35
2023-02-09T10:50:11.612Z,26.24
2023-02-09T10:52:59.820Z,27.20
2023-02-09T10:55:39.939Z,27.19
2023-02-09T10:58:11.648Z,26.78
2023-02-09T11:00:52.697Z,26.50
2023-02-09T11:03:27.815Z,26.55
2023-02-09T11:06:15.608Z,26.28
2023-02-09T11:08:55.383Z,27.50
2023-02-09T11:11:40.206Z,26.28
2023-02-09T11:14:15.726Z,25.82
2023-02-09T11:16:57.990Z,25.25
2023-02-09T11:19:57.711Z,25.17
2023-02-09T11:23:03.063Z,25.10
2023-02-09T11:26:12.071Z,25.42
2023-02-09T11:29:22.280Z,25.63
2023-02-09T11:31:56.929Z,26.09
2023-02-09T11:34:42.099Z,26.00
2023-02-09T11:37:32.090Z,25.71
2023-02-09T11:40:38.906Z,25.71
2023-02-09T11:43:18.986Z,25.71
2023-02-09T11:45:56.748Z,25.60
2023-02-09T11:48:36.377Z,26.04
2023-02-09T11:51:20.989Z,26.27
2023-02-09T11:54:22.208Z,26.19
2023-02-09T11:57:01.610Z,26.88
2023-02-09T11:59:39.580Z,26.96
2023-02-09T12:02:14.274Z,27.34
2023-02-09T12:04:58.573Z,27.86
2023-02-09T12:07:55.387Z,26.02
2023-02-09T12:10:45.257Z,25.87
2023-02-09T12:13:44.097Z,25.97
2023-02-09T12:16:20.765Z,25.69
2023-02-09T12:18:55.574Z,26.08
2023-02-09T12:21:34.476Z,25.08
2023-02-09T12:24:39.017Z,24.87
2023-02-09T12:27:26.432Z,24.20
2023-02-09T12:29:59.082Z,25.11
2023-02-09T12:32:44.795Z,24.83
2023-02-09T12:35:37.208Z,24.87
2023-02-09T12:38:15.818Z,24.82
2023-02-09T12:41:03.855Z,24.61
2023-02-09T12:43:37.656Z,25.89
2023-02-09T12:46:22.959Z,25.50
2023-02-09T12:49:07.595Z,26.24
2023-02-09T12:51:51.739Z,25.85
2023-02-09T12:54:26.112Z,25.98
2023-02-09T12:57:16.113Z,25.18
2023-02-09T12:59:51.167Z,25.27
2023-02-09T13:02:24.002Z,25.55
2023-02-09T13:05:07.916Z,24.86
2023-02-09T13:07:58.115Z,24.85
2023-02-09T13:10:41.690Z,25.03
2023-02-09T13:13:13.364Z,25.33
2023-02-09T13:15:50.769Z,25.36
2023-02-09T13:19:04.089Z,24.72
2023-02-09T13:21:47.872Z,24.16
2023-02-09T13:24:38.901Z,25.03
2023-02-09T13:27:19.520Z,25.17
2023-02-09T13:29:53.609Z,25.96
2023-02-09T13:32:30.953Z,25.31
2023-02-09T13:35:29.364Z,24.79
2023-02-09T13:38:17.653Z,25.51
2023-02-09T13:40:50.627Z,25.38
2023-02-09T13:43:33.597Z,24.94
2023-02-09T13:46:05.535Z,25.19
2023-02-09T13:48:38.691Z,25.57
2023-02-09T13:51:19.451Z,25.57
2023-02-09T13:53:59.236Z,25.92
2023-02-09T13:56:32.491Z,25.85
2023-02-09T13:59:04.551Z,25.33
2023-02-09T14:01:37.341Z,25.48
2023-02-09T14:04:17.577Z,25.02
2023-02-09T14:07:03.699Z,25.25
2023-02-09T14:09:49.396Z,25.58
2023-02-09T14:12:51.322Z,26.02
2023-02-09T14:15:48.555Z,25.74
2023-02-09T14:18:26.419Z,25.87
2023-02-09T14:21:19.341Z,25.66
2023-02-09T14:23:58.022Z,26.34
2023-02-09T14:26:43.156Z,25.87
2023-02-09T14:29:20.851Z,26.49
2023-02-09T14:31:56.020Z,26.74
2023-02-09T14:34:39.266Z,27.08
2023-02-09T14:37:11.009Z,26.75
2023-02-09T14:39:56.612Z,28.10
2023-02-09T14:42:33.494Z,27.53
2023-02-09T14:45:14.206Z,27.63
2023-02-09T14:47:47.741Z,28.51
2023-02-09T14:50:23.445Z,27.82
2023-02-09T14:53:07.998Z,28.09
2023-02-09T14:55:44.425Z,28.61
2023-02-09T14:58:20.689Z,28.40
2023-02-09T15:00:54.564Z,28.41
2023-02-09T15:03:26.834Z,28.63
2023-02-09T15:06:02.385Z,28.74
2023-02-09T15:08:36.892Z,29.48
2023-02-09T15:11:34.265Z,29.71
2023-02-09T15:14:07.877Z,29.87
2023-02-09T15:16:39.539Z,30.18
2023-02-09T15:19:16.509Z,30.65
2023-02-09T15:22:05.219Z,30.26
2023-02-09T15:24:38.479Z,30.22
2023-02-09T15:27:24.233Z,30.36
2023-02-09T15:29:59.832Z,30.56
2023-02-09T15:32:35.425Z,30.76
2023-02-09T15:35:07.661Z,30.63
2023-02-09T15:37:40.333Z,31.03
2023-02-09T15:40:15.144Z,31.03
2023-02-09T15:43:06.509Z,30.99
2023-02-09T15:45:57.107Z,31.40
2023-02-09T15:48:28.748Z,31.38
2023-02-09T15:51:00.608Z,31.42
2023-02-09T15:53:32.343Z,31.55
2023-02-09T15:56:06.260Z,32.05
2023-02-09T15:58:47.107Z,31.90
2023-02-09T16:01:19.261Z,32.62
2023-02-09T16:03:52.419Z,33.19
2023-02-09T16:06:24.922Z,33.39
2023-02-09T16:08:59.815Z,33.90
2023-02-09T16:11:40.381Z,34.06
2023-02-09T16:14:23.444Z,34.40
2023-02-09T16:16:55.231Z,34.65
2023-02-09T16:19:27.041Z,34.66
2023-02-09T16:22:04.417Z,34.60
2023-02-09T16:24:47.173Z,35.56
2023-02-09T16:27:29.817Z,36.33
2023-02-09T16:30:01.658Z,36.99
2023-02-09T16:32:37.903Z,36.59
2023-02-09T16:35:17.083Z,36.34
2023-02-09T16:37:51.023Z,36.75
2023-02-09T16:40:31.079Z,37.31
2023-02-09T16:43:02.996Z,37.52
2023-02-09T16:45:36.521Z,37.35
2023-02-09T16:48:20.876Z,38.52
2023-02-09T16:50:53.970Z,38.46
2023-02-09T16:53:37.306Z,38.71
2023-02-09T16:56:12.947Z,39.10
2023-02-09T16:58:45.838Z,39.10
2023-02-09T17:01:22.726Z,39.17
2023-02-09T17:03:56.617Z,39.18
2023-02-09T17:06:30.097Z,39.00
2023-02-09T17:09:01.782Z,39.52
2023-02-09T17:11:36.250Z,39.56
2023-02-09T17:14:08.102Z,40.10
2023-02-09T17:16:43.409Z,40.13
2023-02-09T17:19:20.891Z,40.46
2023-02-09T17:21:52.613Z,40.84
2023-02-09T17:24:24.551Z,41.05
2023-02-09T17:26:56.232Z,41.42
2023-02-09T17:29:33.319Z,41.37
2023-02-09T17:32:13.467Z,41.53
2023-02-09T17:34:45.272Z,41.33
2023-02-09T17:37:17.002Z,41.63
2023-02-09T17:39:48.655Z,41.84
2023-02-09T17:42:22.804Z,42.32
2023-02-09T17:44:55.907Z,42.30
2023-02-09T17:47:29.251Z,42.04
2023-02-09T17:50:01.271Z,42.53
2023-02-09T17:52:33.062Z,43.24
2023-02-09T17:55:05.047Z,43.09
2023-02-09T17:57:36.775Z,44.04
2023-02-09T18:00:09.056Z,43.60
2023-02-09T18:02:41.178Z,43.77
2023-02-09T18:05:18.910Z,44.46
2023-02-09T18:07:51.513Z,44.80
2023-02-09T18:10:23.315Z,45.28
2023-02-09T18:12:57.219Z,45.32
2023-02-09T18:15:33.339Z,45.50
2023-02-09T18:18:05.109Z,45.94
2023-02-09T18:20:37.118Z,46.06
2023-02-09T18:23:14.875Z,46.83
2023-02-09T18:25:47.867Z,46.91
2023-02-09T18:28:19.907Z,46.98
2023-02-09T18:30:51.655Z,47.14
2023-02-09T18:33:23.353Z,47.29
2023-02-09T18:35:55.180Z,47.90
2023-02-09T18:38:26.914Z,48.14
2023-02-09T18:40:58.608Z,48.27
2023-02-09T18:43:30.330Z,48.24
2023-02-09T18:46:03.489Z,48.15
2023-02-09T18:48:35.343Z,47.84
2023-02-09T18:51:10.301Z,48.10
2023-02-09T18:53:42.805Z,47.96
2023-02-09T18:56:19.732Z,48.18
2023-02-09T18:58:52.067Z,48.20
2023-02-09T19:01:24.371Z,48.72
2023-02-09T19:03:56.081Z,48.65
2023-02-09T19:06:27.971Z,48.91
2023-02-09T19:08:59.661Z,49.39
2023-02-09T19:11:31.459Z,49.41
2023-02-09T19:14:22.100Z,49.37
2023-02-09T19:16:53.806Z,49.70
2023-02-09T19:19:26.159Z,50.05
2023-02-09T19:22:00.163Z,49.99
2023-02-09T19:24:31.931Z,50.03
2023-02-09T19:27:06.660Z,50.11
2023-02-09T19:29:41.277Z,50.22
2023-02-09T19:32:14.615Z,50.33
2023-02-09T19:34:47.265Z,50.37
2023-02-09T19:37:21.027Z,50.40
2023-02-09T19:39:53.270Z,50.46
2023-02-09T19:42:24.960Z,50.15
2023-02-09T19:44:56.961Z,49.89
2023-02-09T19:47:28.694Z,50.14
2023-02-09T19:50:00.521Z,50.45
2023-02-09T19:52:34.870Z,50.18
2023-02-09T19:55:06.962Z,50.23
2023-02-09T19:57:38.644Z,50.46
2023-02-09T20:00:15.760Z,50.84
2023-02-09T20:02:48.347Z,50.95
2023-02-09T20:05:20.117Z,50.92
2023-02-09T20:07:53.698Z,50.95
2023-02-09T20:10:25.543Z,51.13
2023-02-09T20:12:57.204Z,51.26
2023-02-09T20:15:28.893Z,51.36
2023-02-09T20:18:01.080Z,51.21
2023-02-09T20:20:32.903Z,51.22
2023-02-09T20:23:04.624Z,51.66
2023-02-09T20:25:36.406Z,51.60
2023-02-09T20:28:08.405Z,51.30
2023-02-09T20:30:42.415Z,51.28
2023-02-09T20:33:17.391Z,51.61
2023-02-09T20:35:49.039Z,51.60
2023-02-09T20:38:20.772Z,52.02
2023-02-09T20:40:52.520Z,52.44
2023-02-09T20:43:42.970Z,52.10
2023-02-09T20:46:39.488Z,52.71
2023-02-09T20:49:13.464Z,52.96
2023-02-09T20:51:46.043Z,52.86
2023-02-09T20:54:17.713Z,53.18
2023-02-09T20:56:49.619Z,53.63
2023-02-09T20:59:21.400Z,54.09
2023-02-09T21:01:53.146Z,54.28
2023-02-09T21:04:30.224Z,53.78
2023-02-09T21:07:04.140Z,54.17
2023-02-09T21:09:35.846Z,54.54
2023-02-09T21:12:10.705Z,54.34
2023-02-09T21:14:45.180Z,54.50
2023-02-09T21:17:19.161Z,54.32
2023-02-09T21:19:50.897Z,54.67
2023-02-09T21:22:22.603Z,54.48
2023-02-09T21:24:54.313Z,54.82
2023-02-09T21:27:28.807Z,54.55
2023-02-09T21:30:00.547Z,54.56
2023-02-09T21:32:34.935Z,54.17
2023-02-09T21:35:10.241Z,53.77
2023-02-09T21:37:42.950Z,54.16
2023-02-09T21:40:16.198Z,53.46
2023-02-09T21:42:48.855Z,53.67
2023-02-09T21:45:20.557Z,53.23
2023-02-09T21:47:52.371Z,53.04
2023-02-09T21:50:24.147Z,53.28
2023-02-09T21:52:55.796Z,53.04
2023-02-09T21:55:30.759Z,53.45
2023-02-09T21:58:02.419Z,53.30
2023-02-09T22:00:34.323Z,53.32
2023-02-09T22:03:05.978Z,53.11
2023-02-09T22:05:37.643Z,53.39
2023-02-09T22:08:09.259Z,53.70
2023-02-09T22:10:40.944Z,53.65
2023-02-09T22:13:12.630Z,53.64
2023-02-09T22:15:44.739Z,53.63
2023-02-09T22:18:16.416Z,54.12
2023-02-09T22:20:48.720Z,54.66
2023-02-09T22:23:20.597Z,54.94
2023-02-09T22:25:58.464Z,54.55
2023-02-09T22:28:30.391Z,55.02
2023-02-09T22:31:14.316Z,55.21
2023-02-09T22:33:46.359Z,55.58
2023-02-09T22:36:18.896Z,55.37
2023-02-09T22:38:51.332Z,55.10
2023-02-09T22:41:24.064Z,55.65
2023-02-09T22:44:07.839Z,55.37
2023-02-09T22:46:41.580Z,55.74
2023-02-09T22:49:18.573Z,55.34
2023-02-09T22:51:50.867Z,55.93
2023-02-09T22:54:22.546Z,55.61
2023-02-09T22:56:54.376Z,55.91
2023-02-09T22:59:26.019Z,55.75
2023-02-09T23:01:57.777Z,55.85
2023-02-09T23:04:31.924Z,55.69
2023-02-09T23:07:04.981Z,56.07
2023-02-09T23:09:36.703Z,55.85
2023-02-09T23:12:08.430Z,55.95
2023-02-09T23:14:40.549Z,56.01
2023-02-09T23:17:12.614Z,55.95
2023-02-09T23:19:44.911Z,56.01
2023-02-09T23:22:16.570Z,55.98
2023-02-09T23:24:48.279Z,55.84
2023-02-09T23:27:19.919Z,56.33
2023-02-09T23:29:51.612Z,56.09
2023-02-09T23:32:23.381Z,56.08
2023-02-09T23:34:55.121Z,55.98
2023-02-09T23:37:37.517Z,55.92
2023-02-09T23:40:10.418Z,56.16
2023-02-09T23:42:42.126Z,56.50
2023-02-09T23:45:13.836Z,56.11
2023-02-09T23:47:45.549Z,56.29
2023-02-09T23:50:17.696Z,56.37
2023-02-09T23:52:49.406Z,56.60
2023-02-09T23:55:21.169Z,56.75
2023-02-09T23:57:52.929Z,56.79
